Time;durP1;ratioP1;P1;durP2;ratioP2;P2;SDS_P1;SDS_P2;PMS_P1;PMS_P2;Temp;Humidity;BMP_temperature;BMP_pressure;BME280_temperature;BME280_humidity;BME280_pressure;Samples;Min_cycle;Max_cycle;Signal;HPM_P1;HPM_P2
2022/05/05 00:00:34;;;;;;;0.38;0.30;;;7.10;99.90;;;;;;5062198;28;20029;-68
2022/05/05 00:03:01;;;;;;;0.35;0.30;;;7.10;99.90;;;;;;5061965;28;20029;-68
2022/05/05 00:05:29;;;;;;;1.10;0.30;;;7.00;99.90;;;;;;5064017;28;20033;-68
2022/05/05 00:07:54;;;;;;;0.90;0.30;;;7.00;99.90;;;;;;5062696;28;20025;-68
2022/05/05 00:15:48;;;;;;;1.23;0.38;;;6.90;99.90;;;;;;5062713;28;20047;-69
2022/05/05 00:18:14;;;;;;;1.45;0.57;;;7.00;99.90;;;;;;5063875;28;20485;-68
2022/05/05 00:20:41;;;;;;;0.43;0.28;;;6.90;99.90;;;;;;5062284;28;20372;-68
2022/05/05 00:23:07;;;;;;;0.68;0.30;;;6.90;99.90;;;;;;5063478;28;20041;-68
2022/05/05 00:25:33;;;;;;;1.42;0.38;;;6.90;99.90;;;;;;5062566;28;20041;-68
2022/05/05 00:27:59;;;;;;;0.90;0.30;;;6.90;99.90;;;;;;5061731;28;20110;-68
2022/05/05 00:30:24;;;;;;;0.60;0.30;;;6.90;99.90;;;;;;5061436;28;20043;-68
2022/05/05 00:32:50;;;;;;;0.88;0.30;;;6.90;99.90;;;;;;5061363;28;20378;-68
2022/05/05 00:35:16;;;;;;;0.30;0.20;;;6.90;99.90;;;;;;5062918;28;20104;-68
2022/05/05 00:37:41;;;;;;;0.75;0.30;;;6.90;99.90;;;;;;5060243;28;20023;-68
2022/05/05 00:40:07;;;;;;;0.57;0.30;;;6.90;99.90;;;;;;5063290;28;20036;-68
2022/05/05 00:42:35;;;;;;;0.93;0.30;;;6.90;99.90;;;;;;5062180;28;20067;-68
2022/05/05 00:45:01;;;;;;;0.73;0.30;;;6.90;99.90;;;;;;5063043;28;20018;-68
2022/05/05 00:47:26;;;;;;;0.50;0.30;;;6.90;99.90;;;;;;5062020;28;20036;-68
2022/05/05 00:49:52;;;;;;;0.75;0.30;;;7.00;99.90;;;;;;5060917;28;20068;-68
2022/05/05 00:52:18;;;;;;;0.80;0.30;;;7.00;99.90;;;;;;5063236;28;20023;-68
2022/05/05 00:54:44;;;;;;;0.82;0.30;;;6.90;99.90;;;;;;5061836;28;20097;-68
2022/05/05 00:57:10;;;;;;;0.28;0.20;;;7.00;99.90;;;;;;5063022;28;20055;-68
2022/05/05 00:59:36;;;;;;;0.38;0.30;;;6.90;99.90;;;;;;5061811;28;20092;-68
2022/05/05 01:02:02;;;;;;;0.98;0.30;;;7.00;99.90;;;;;;5061338;28;20025;-68
2022/05/05 01:04:31;;;;;;;0.40;0.30;;;6.90;99.90;;;;;;5062047;28;20029;-68
2022/05/05 01:06:59;;;;;;;0.73;0.30;;;6.90;99.90;;;;;;5062089;28;20029;-69
2022/05/05 01:09:26;;;;;;;0.90;0.30;;;6.90;99.90;;;;;;5061410;28;20029;-68
2022/05/05 01:11:51;;;;;;;0.75;0.30;;;6.90;99.90;;;;;;5061559;28;20021;-68
2022/05/05 01:14:17;;;;;;;0.88;0.30;;;6.80;99.90;;;;;;5062580;28;20122;-68
2022/05/05 01:16:43;;;;;;;0.57;0.30;;;6.80;99.90;;;;;;5060925;28;20055;-68
2022/05/05 01:19:09;;;;;;;0.75;0.30;;;6.80;99.90;;;;;;5061029;28;20044;-68
2022/05/05 01:21:34;;;;;;;0.20;0.20;;;6.80;99.90;;;;;;5061677;28;20056;-68
2022/05/05 01:24:00;;;;;;;1.15;0.70;;;6.80;99.90;;;;;;5061884;28;20021;-69
2022/05/05 01:29:11;;;;;;;1.02;0.32;;;6.80;99.90;;;;;;5060175;28;20048;-68
2022/05/05 01:31:39;;;;;;;1.55;0.40;;;6.80;99.90;;;;;;5062068;28;20075;-69
2022/05/05 01:34:05;;;;;;;0.95;0.30;;;6.80;99.90;;;;;;5059902;28;20024;-68
2022/05/05 01:36:31;;;;;;;1.08;0.32;;;6.70;99.90;;;;;;5060497;28;20454;-68
2022/05/05 01:38:57;;;;;;;1.25;0.40;;;6.80;99.90;;;;;;5060243;28;20040;-68
2022/05/05 01:41:26;;;;;;;0.85;0.30;;;6.80;99.90;;;;;;5061393;28;20032;-68
2022/05/05 01:43:51;;;;;;;0.50;0.28;;;6.80;99.90;;;;;;5062553;28;20029;-68
2022/05/05 01:46:17;;;;;;;0.55;0.30;;;6.70;99.90;;;;;;5060564;28;20017;-68
2022/05/05 01:48:43;;;;;;;0.57;0.30;;;6.70;99.90;;;;;;5061687;28;20025;-68
2022/05/05 01:51:09;;;;;;;0.80;0.30;;;6.70;99.90;;;;;;5060753;28;20059;-68
2022/05/05 01:53:37;;;;;;;0.40;0.28;;;6.70;99.90;;;;;;5061643;28;20480;-67
2022/05/05 01:56:06;;;;;;;0.73;0.30;;;6.70;99.90;;;;;;5061433;28;20028;-68
2022/05/05 01:58:31;;;;;;;0.45;0.30;;;6.60;99.90;;;;;;5060960;28;20024;-68
2022/05/05 02:00:58;;;;;;;0.88;0.43;;;6.60;99.90;;;;;;5061943;28;20029;-68
2022/05/05 02:03:23;;;;;;;1.10;0.30;;;6.60;99.90;;;;;;5060461;28;20392;-68
2022/05/05 02:05:49;;;;;;;0.65;0.30;;;6.60;99.90;;;;;;5060669;28;20017;-68
2022/05/05 02:08:15;;;;;;;0.90;0.30;;;6.50;99.90;;;;;;5060654;28;20032;-69
2022/05/05 02:10:40;;;;;;;0.32;0.20;;;6.60;99.90;;;;;;5061527;28;20037;-68
2022/05/05 02:13:07;;;;;;;1.17;0.38;;;6.50;99.90;;;;;;5060542;28;20049;-68
2022/05/05 02:15:34;;;;;;;0.60;0.30;;;6.50;99.90;;;;;;5059989;28;20036;-68
2022/05/05 02:18:07;;;;;;;1.00;0.30;;;6.50;99.90;;;;;;5061588;28;20671;-69
2022/05/05 02:20:33;;;;;;;0.85;0.30;;;6.50;99.90;;;;;;5060141;28;20037;-69
2022/05/05 02:22:59;;;;;;;0.68;0.30;;;6.60;99.90;;;;;;5061440;28;20033;-69
2022/05/05 02:25:24;;;;;;;0.77;0.30;;;6.50;99.90;;;;;;5060350;28;20025;-69
2022/05/05 02:27:52;;;;;;;0.80;0.30;;;6.60;99.90;;;;;;5061101;28;20021;-69
2022/05/05 02:30:19;;;;;;;0.55;0.28;;;6.60;99.90;;;;;;5059196;28;20067;-69
2022/05/05 02:32:45;;;;;;;0.25;0.25;;;6.60;99.90;;;;;;5060506;28;20017;-68
2022/05/05 02:35:12;;;;;;;0.20;0.20;;;6.60;99.90;;;;;;5061258;28;20500;-68
2022/05/05 02:40:23;;;;;;;0.90;0.30;;;6.60;99.90;;;;;;5060150;28;20036;-69
2022/05/05 02:42:48;;;;;;;1.33;0.32;;;6.50;99.90;;;;;;5060290;28;20056;-69
2022/05/05 02:45:14;;;;;;;1.13;0.40;;;6.50;99.90;;;;;;5060316;28;20388;-68
2022/05/05 02:47:40;;;;;;;0.43;0.30;;;6.50;99.90;;;;;;5059655;28;20028;-68
2022/05/05 02:50:06;;;;;;;0.98;0.30;;;6.50;99.90;;;;;;5058482;28;20056;-68
2022/05/05 02:52:31;;;;;;;1.10;0.30;;;6.40;99.90;;;;;;5061403;28;20036;-69
2022/05/05 02:54:57;;;;;;;1.02;0.30;;;6.40;99.90;;;;;;5059825;28;20574;-68
2022/05/05 02:57:24;;;;;;;0.77;0.30;;;6.30;99.90;;;;;;5060911;28;20025;-69
2022/05/05 02:59:54;;;;;;;0.70;0.30;;;6.30;99.90;;;;;;5061546;28;20459;-69
2022/05/05 03:02:20;;;;;;;0.98;0.30;;;6.20;99.90;;;;;;5064815;28;20092;-69
2022/05/05 03:04:47;;;;;;;0.82;0.38;;;6.20;99.90;;;;;;5064773;28;20407;-69
2022/05/05 03:07:12;;;;;;;1.05;0.30;;;6.20;99.90;;;;;;5063910;28;20091;-68
2022/05/05 03:09:39;;;;;;;1.23;0.40;;;6.20;99.90;;;;;;5064982;28;20033;-69
2022/05/05 03:12:05;;;;;;;0.38;0.30;;;6.20;99.90;;;;;;5062234;28;20087;-68
2022/05/05 03:14:31;;;;;;;0.82;0.30;;;6.20;99.90;;;;;;5063207;28;20053;-68
2022/05/05 03:16:57;;;;;;;0.47;0.30;;;6.10;99.90;;;;;;5063219;28;20071;-69
2022/05/05 03:19:26;;;;;;;1.05;0.30;;;6.10;99.90;;;;;;5063056;28;20087;-68
2022/05/05 03:21:52;;;;;;;0.90;0.30;;;6.10;99.90;;;;;;5064311;28;20025;-69
2022/05/05 03:24:17;;;;;;;1.52;0.35;;;6.10;99.90;;;;;;5063726;28;20032;-69
2022/05/05 03:26:44;;;;;;;0.60;0.30;;;6.10;99.90;;;;;;5064741;28;20033;-68
2022/05/05 03:29:10;;;;;;;1.05;0.32;;;6.10;99.90;;;;;;5063179;28;20397;-68
2022/05/05 03:31:36;;;;;;;1.05;0.32;;;6.10;99.90;;;;;;5063137;28;20035;-69
2022/05/05 03:34:03;;;;;;;0.63;0.30;;;6.10;99.90;;;;;;5063397;28;20033;-68
2022/05/05 03:36:28;;;;;;;1.10;0.30;;;6.10;99.90;;;;;;5062641;28;20066;-69
2022/05/05 03:38:54;;;;;;;1.35;0.40;;;6.10;99.90;;;;;;5063784;28;20061;-69
2022/05/05 03:41:21;;;;;;;0.63;0.30;;;6.00;99.90;;;;;;5062023;28;20075;-68
2022/05/05 03:43:47;;;;;;;0.77;0.30;;;6.00;99.90;;;;;;5064373;28;20017;-68
2022/05/05 03:46:13;;;;;;;0.65;0.30;;;5.90;99.90;;;;;;5062822;28;20047;-68
2022/05/05 03:48:38;;;;;;;0.70;0.30;;;5.90;99.90;;;;;;5064058;28;20037;-68
2022/05/05 03:51:04;;;;;;;0.60;0.30;;;5.90;99.90;;;;;;5062868;28;20120;-68
2022/05/05 03:53:30;;;;;;;0.65;0.30;;;5.90;99.90;;;;;;5063990;28;20025;-68
2022/05/05 03:55:56;;;;;;;0.30;0.30;;;5.80;99.90;;;;;;5063343;28;20035;-68
2022/05/05 03:58:22;;;;;;;0.38;0.30;;;5.80;99.90;;;;;;5061930;28;20033;-68
2022/05/05 04:00:47;;;;;;;1.25;0.47;;;5.80;99.90;;;;;;5063999;28;20029;-68
2022/05/05 04:03:31;;;;;;;0.68;0.30;;;5.70;99.90;;;;;;5062736;28;20033;-68
2022/05/05 04:06:04;;;;;;;0.43;0.30;;;5.70;99.90;;;;;;5063760;28;20025;-68
2022/05/05 04:08:31;;;;;;;0.52;0.25;;;5.70;99.90;;;;;;5062798;28;20040;-68
2022/05/05 04:10:57;;;;;;;0.25;0.25;;;5.70;99.90;;;;;;5044993;28;20041;-68
2022/05/05 04:13:23;;;;;;;0.90;0.32;;;5.70;99.90;;;;;;5063287;28;20045;-68
2022/05/05 04:15:49;;;;;;;1.05;0.30;;;5.70;99.90;;;;;;5062436;28;20103;-68
2022/05/05 04:18:14;;;;;;;1.13;0.30;;;5.70;99.90;;;;;;5063843;28;20021;-68
2022/05/05 04:20:42;;;;;;;1.23;0.30;;;5.70;99.90;;;;;;5062599;28;20035;-68
2022/05/05 04:23:08;;;;;;;1.08;0.30;;;5.70;99.90;;;;;;5063408;28;20405;-68
2022/05/05 04:25:35;;;;;;;0.88;0.30;;;5.70;99.90;;;;;;5061009;28;20025;-68
2022/05/05 04:28:01;;;;;;;0.80;0.30;;;5.60;99.90;;;;;;5063121;28;20040;-68
2022/05/05 04:30:26;;;;;;;0.68;0.30;;;5.70;99.90;;;;;;5063033;28;20049;-68
2022/05/05 04:32:53;;;;;;;1.23;0.40;;;5.60;99.90;;;;;;5061227;28;20036;-68
2022/05/05 04:35:19;;;;;;;0.55;0.30;;;5.60;99.90;;;;;;5063505;28;20412;-68
2022/05/05 04:37:50;;;;;;;1.38;0.35;;;5.70;99.90;;;;;;5062220;28;20039;-68
2022/05/05 04:40:16;;;;;;;1.02;0.32;;;5.60;99.90;;;;;;5061630;28;20063;-68
2022/05/05 04:42:41;;;;;;;1.10;0.30;;;5.70;99.90;;;;;;5062389;28;20025;-68
2022/05/05 04:45:08;;;;;;;1.20;0.38;;;5.70;99.90;;;;;;5062946;28;20032;-68
2022/05/05 04:47:33;;;;;;;0.75;0.30;;;5.70;99.90;;;;;;5062268;28;20040;-68
2022/05/05 04:49:59;;;;;;;0.82;0.30;;;5.70;99.90;;;;;;5063286;28;20088;-69
2022/05/05 04:52:25;;;;;;;0.68;0.25;;;5.80;99.90;;;;;;5065465;28;20033;-68
2022/05/05 04:54:53;;;;;;;0.40;0.30;;;5.80;99.90;;;;;;5063880;28;20025;-68
2022/05/05 04:57:19;;;;;;;1.10;0.32;;;5.80;99.90;;;;;;5064845;28;20036;-67
2022/05/05 04:59:45;;;;;;;1.17;0.40;;;5.80;99.90;;;;;;5064488;28;20025;-70
2022/05/05 05:02:10;;;;;;;0.50;0.30;;;5.90;99.90;;;;;;5064787;28;20044;-70
2022/05/05 05:04:36;;;;;;;0.38;0.30;;;5.90;99.90;;;;;;5063983;28;20029;-70
2022/05/05 05:07:02;;;;;;;1.50;0.40;;;6.00;99.90;;;;;;5064414;28;20021;-70
2022/05/05 05:09:28;;;;;;;2.22;0.63;;;6.10;99.90;;;;;;5065172;28;20096;-69
2022/05/05 05:11:54;;;;;;;0.90;0.30;;;6.20;99.90;;;;;;5063764;28;20083;-70
2022/05/05 05:14:20;;;;;;;0.88;0.30;;;6.30;99.90;;;;;;5062637;28;20045;-70
2022/05/05 05:16:45;;;;;;;0.63;0.30;;;6.40;99.90;;;;;;5060864;28;20061;-68
2022/05/05 05:19:11;;;;;;;1.33;0.40;;;6.60;99.90;;;;;;5062300;28;20029;-67
2022/05/05 05:21:37;;;;;;;0.63;0.30;;;6.70;99.90;;;;;;5061294;28;20066;-67
2022/05/05 05:24:03;;;;;;;1.38;0.40;;;6.80;99.90;;;;;;5061626;28;20033;-67
2022/05/05 05:26:29;;;;;;;1.35;0.40;;;7.00;99.90;;;;;;5062309;28;20044;-67
2022/05/05 05:28:54;;;;;;;0.68;0.30;;;7.10;99.90;;;;;;5061375;28;20471;-67
2022/05/05 05:31:21;;;;;;;0.55;0.30;;;7.20;99.90;;;;;;5062147;28;20199;-68
2022/05/05 05:33:48;;;;;;;0.80;0.30;;;7.50;99.90;;;;;;5061146;28;20025;-68
2022/05/05 05:36:14;;;;;;;0.50;0.30;;;7.60;99.90;;;;;;5061947;28;20029;-68
2022/05/05 05:38:40;;;;;;;0.55;0.35;;;7.70;99.90;;;;;;5061338;28;20032;-67
2022/05/05 05:41:05;;;;;;;0.30;0.22;;;7.80;99.90;;;;;;5059899;28;20033;-67
2022/05/05 05:43:31;;;;;;;0.60;0.30;;;8.10;99.90;;;;;;5060710;28;20079;-68
2022/05/05 05:45:56;;;;;;;1.27;0.30;;;8.30;99.90;;;;;;5060469;28;20171;-68
2022/05/05 05:48:22;;;;;;;0.28;0.20;;;8.40;99.90;;;;;;5062211;28;20099;-68
2022/05/05 05:50:48;;;;;;;0.47;0.30;;;8.50;99.90;;;;;;5060518;28;20496;-67
2022/05/05 05:53:13;;;;;;;0.28;0.28;;;8.70;99.90;;;;;;5061691;28;20040;-68
2022/05/05 05:55:39;;;;;;;0.88;0.30;;;8.80;99.90;;;;;;5060904;28;20025;-68
2022/05/05 05:58:05;;;;;;;1.30;0.30;;;9.00;99.90;;;;;;5061435;28;20056;-68
2022/05/05 06:00:32;;;;;;;0.40;0.20;;;9.00;99.90;;;;;;5061612;28;20021;-67
2022/05/05 06:05:42;;;;;;;0.65;0.30;;;9.10;99.90;;;;;;5062022;28;20045;-68
2022/05/05 06:08:08;;;;;;;1.05;0.30;;;9.20;99.90;;;;;;5060526;28;20029;-67
2022/05/05 06:10:36;;;;;;;0.30;0.30;;;9.40;99.90;;;;;;5061473;28;20104;-67
2022/05/05 06:13:03;;;;;;;1.05;0.40;;;9.90;99.90;;;;;;5060702;28;20045;-67
2022/05/05 06:15:29;;;;;;;0.80;0.40;;;10.40;99.90;;;;;;5058852;28;20028;-67
2022/05/05 06:17:55;;;;;;;0.80;0.30;;;11.60;99.90;;;;;;5061530;28;20025;-68
2022/05/05 06:20:20;;;;;;;0.40;0.30;;;12.70;99.90;;;;;;5060396;28;20025;-68
2022/05/05 06:22:46;;;;;;;0.30;0.20;;;13.60;99.90;;;;;;5060065;28;20025;-67
2022/05/05 06:25:12;;;;;;;0.80;0.40;;;14.40;99.90;;;;;;5060461;28;20472;-67
2022/05/05 06:27:38;;;;;;;1.05;0.40;;;15.10;99.90;;;;;;5061066;28;20029;-68
2022/05/05 06:30:06;;;;;;;0.50;0.25;;;15.80;99.90;;;;;;5060557;28;20033;-67
2022/05/05 06:32:32;;;;;;;0.38;0.20;;;16.10;99.90;;;;;;5060680;28;20025;-68
2022/05/05 06:34:57;;;;;;;0.20;0.20;;;16.50;99.90;;;;;;5061542;28;20029;-67
2022/05/05 06:37:24;;;;;;;2.63;0.52;;;16.80;99.90;;;;;;5060133;28;20569;-67
2022/05/05 06:39:50;;;;;;;0.98;0.40;;;17.20;99.50;;;;;;5043347;28;20021;-68
2022/05/05 06:42:16;;;;;;;0.50;0.30;;;17.70;99.90;;;;;;5060061;28;20021;-68
2022/05/05 06:44:42;;;;;;;0.82;0.55;;;18.20;92.00;;;;;;5059594;28;20032;-68
2022/05/05 06:47:08;;;;;;;0.65;0.28;;;18.40;94.00;;;;;;5059826;28;20020;-67
2022/05/05 06:49:37;;;;;;;0.20;0.20;;;18.90;90.40;;;;;;5042451;28;20062;-68
2022/05/05 06:52:04;;;;;;;0.25;0.20;;;19.40;81.80;;;;;;5061076;28;20033;-68
2022/05/05 06:54:29;;;;;;;0.20;0.20;;;19.90;81.40;;;;;;5059903;28;20100;-68
2022/05/05 06:56:56;;;;;;;0.32;0.20;;;20.10;73.60;;;;;;5059652;28;20106;-68
2022/05/05 06:59:22;;;;;;;0.17;0.15;;;19.70;67.30;;;;;;5059713;28;20022;-67
2022/05/05 07:01:55;;;;;;;0.80;0.30;;;18.80;69.40;;;;;;5060790;28;20035;-67
2022/05/05 07:07:11;;;;;;;0.47;0.20;;;16.80;86.40;;;;;;5059896;28;20129;-67
2022/05/05 07:12:22;;;;;;;0.43;0.20;;;16.20;99.90;;;;;;5058389;28;20081;-66
2022/05/05 07:14:47;;;;;;;0.32;0.20;;;16.10;99.90;;;;;;5059097;28;20056;-67
2022/05/05 07:17:14;;;;;;;0.55;0.20;;;16.50;99.90;;;;;;5059506;28;20104;-67
2022/05/05 07:19:40;;;;;;;0.45;0.20;;;16.90;99.90;;;;;;5060045;28;20441;-67
2022/05/05 07:22:08;;;;;;;0.95;0.35;;;17.10;99.80;;;;;;5060684;28;20105;-67
2022/05/05 07:24:34;;;;;;;0.20;0.10;;;17.20;94.30;;;;;;5058086;28;20024;-67
2022/05/05 07:27:01;;;;;;;0.50;0.20;;;17.30;99.50;;;;;;5059271;28;20578;-68
2022/05/05 07:29:27;;;;;;;0.50;0.20;;;17.80;96.70;;;;;;5057980;28;20017;-68
2022/05/05 07:31:53;;;;;;;0.32;0.10;;;18.10;90.20;;;;;;5060519;28;20028;-68
2022/05/05 07:34:19;;;;;;;0.38;0.15;;;18.00;93.70;;;;;;5059674;28;20086;-68
2022/05/05 07:36:45;;;;;;;0.52;0.20;;;18.30;91.50;;;;;;5060141;28;20017;-68
2022/05/05 07:39:11;;;;;;;0.10;0.10;;;18.50;93.60;;;;;;5060651;28;20044;-68
2022/05/05 07:41:37;;;;;;;0.30;0.20;;;18.50;72.00;;;;;;5059302;28;20096;-68
2022/05/05 07:44:05;;;;;;;0.30;0.15;;;18.30;73.60;;;;;;5059405;28;20059;-68
2022/05/05 07:46:32;;;;;;;0.28;0.10;;;18.70;65.20;;;;;;5061426;28;20067;-68
2022/05/05 07:48:58;;;;;;;0.60;0.32;;;18.60;63.10;;;;;;5063991;28;20025;-68
2022/05/05 07:51:23;;;;;;;0.45;0.20;;;18.50;62.00;;;;;;5061893;28;20044;-67
2022/05/05 07:56:34;;;;;;;0.88;0.22;;;18.50;62.10;;;;;;5064603;28;20051;-68
2022/05/05 07:59:00;;;;;;;0.30;0.10;;;18.70;63.80;;;;;;5062799;28;20124;-68
2022/05/05 08:01:26;;;;;;;0.47;0.15;;;19.00;64.70;;;;;;5063848;28;20021;-68
2022/05/05 08:03:52;;;;;;;0.17;0.10;;;18.60;65.70;;;;;;5062695;28;20032;-67
2022/05/05 08:06:18;;;;;;;0.52;0.20;;;18.80;61.50;;;;;;5062274;28;20472;-68
2022/05/05 08:08:43;;;;;;;0.32;0.17;;;18.70;58.90;;;;;;5063184;28;20025;-67
2022/05/05 08:11:09;;;;;;;0.45;0.20;;;18.60;58.90;;;;;;5062996;28;20048;-67
2022/05/05 08:13:35;;;;;;;0.20;0.10;;;18.70;61.80;;;;;;5063399;28;20060;-67
2022/05/05 08:16:01;;;;;;;0.45;0.20;;;18.70;61.70;;;;;;5062077;28;20107;-67
2022/05/05 08:18:27;;;;;;;0.35;0.13;;;19.00;62.00;;;;;;5063989;28;20021;-67
2022/05/05 08:20:53;;;;;;;0.28;0.10;;;19.00;60.90;;;;;;5062322;28;20104;-67
2022/05/05 08:23:19;;;;;;;0.28;0.10;;;19.20;58.20;;;;;;5063322;28;20025;-67
2022/05/05 08:28:29;;;;;;;0.47;0.20;;;19.70;62.80;;;;;;5062497;28;20040;-67
2022/05/05 08:30:56;;;;;;;0.35;0.28;;;20.20;60.70;;;;;;5063737;28;20116;-67
2022/05/05 08:33:27;;;;;;;0.17;0.10;;;21.60;60.40;;;;;;5062134;28;20083;-67
2022/05/05 08:35:57;;;;;;;0.43;0.10;;;21.10;52.30;;;;;;5063369;28;20044;-67
2022/05/05 08:38:23;;;;;;;0.38;0.17;;;21.40;53.50;;;;;;5062200;28;20067;-68
2022/05/05 08:40:49;;;;;;;0.17;0.10;;;21.50;52.20;;;;;;5062646;28;20021;-68
2022/05/05 08:43:15;;;;;;;0.10;0.10;;;21.70;51.10;;;;;;5062769;28;20081;-67
2022/05/05 08:45:42;;;;;;;0.45;0.13;;;22.00;52.00;;;;;;5060307;28;20037;-67
2022/05/05 08:48:11;;;;;;;0.40;0.20;;;21.70;51.30;;;;;;5063087;28;20055;-68
2022/05/05 08:50:38;;;;;;;0.10;0.10;;;21.70;51.00;;;;;;5061646;28;20052;-67
2022/05/05 08:53:04;;;;;;;0.20;0.20;;;20.90;51.20;;;;;;5062808;28;20021;-68
2022/05/05 08:55:31;;;;;;;0.10;0.10;;;21.60;52.80;;;;;;5061910;28;20025;-68
2022/05/05 08:57:57;;;;;;;0.17;0.10;;;21.20;50.50;;;;;;5061412;28;20055;-68
2022/05/05 09:00:24;;;;;;;1.08;0.13;;;20.80;50.00;;;;;;5062685;28;20044;-68
2022/05/05 09:03:00;;;;;;;0.25;0.10;;;21.40;52.30;;;;;;5061753;28;20029;-67
2022/05/05 09:05:43;;;;;;;0.10;0.10;;;21.40;50.90;;;;;;5062889;28;20083;-68
2022/05/05 09:08:13;;;;;;;0.17;0.10;;;21.50;51.70;;;;;;5061503;28;20029;-68
2022/05/05 09:10:48;;;;;;;0.32;0.30;;;21.20;51.20;;;;;;5062315;28;20420;-67
2022/05/05 09:13:21;;;;;;;0.10;0.10;;;21.50;52.60;;;;;;5062182;28;20117;-67
2022/05/05 09:15:46;;;;;;;0.03;0.03;;;22.40;52.60;;;;;;5061097;28;20021;-67
2022/05/05 09:18:19;;;;;;;0.03;0.03;;;22.60;51.90;;;;;;5044688;28;20037;-65
2022/05/05 09:20:46;;;;;;;0.17;0.10;;;22.40;49.80;;;;;;5061215;28;20017;-66
2022/05/05 09:24:34;;;;;;;0.38;0.20;;;22.10;50.70;;;;;;5062261;28;20013;-66
2022/05/05 09:26:30;;;;;;;0.45;0.25;;;21.90;49.30;;;;;;5062346;28;20033;-67
2022/05/05 09:28:57;;;;;;;0.10;0.10;;;22.10;50.50;;;;;;5060985;28;20056;-66
2022/05/05 09:31:23;;;;;;;0.17;0.10;;;22.40;49.40;;;;;;5062193;28;20064;-66
2022/05/05 09:33:49;;;;;;;0.10;0.10;;;22.50;51.10;;;;;;5061013;28;20028;-67
2022/05/05 09:36:17;;;;;;;0.08;0.08;;;22.60;50.00;;;;;;5044070;28;20021;-67
2022/05/05 09:39:05;;;;;;;0.08;0.08;;;21.90;49.90;;;;;;5061697;28;20021;-67
2022/05/05 09:41:32;;;;;;;0.17;0.10;;;22.70;49.30;;;;;;5060904;28;20036;-66
2022/05/05 09:44:12;;;;;;;0.10;0.10;;;22.60;48.60;;;;;;5061972;28;20112;-67
2022/05/05 09:46:38;;;;;;;0.10;0.10;;;22.90;49.30;;;;;;5059061;28;20029;-67
2022/05/05 09:49:07;;;;;;;0.00;0.00;;;23.10;47.50;;;;;;5061638;28;20059;-67
2022/05/05 09:51:37;;;;;;;0.10;0.10;;;22.50;45.90;;;;;;5061206;28;20385;-66
2022/05/05 09:59:40;;;;;;;0.10;0.10;;;24.00;47.50;;;;;;5059954;28;20040;-67
2022/05/05 10:02:15;;;;;;;0.10;0.10;;;24.20;47.50;;;;;;5061419;28;20035;-68
2022/05/05 10:04:48;;;;;;;0.10;0.10;;;24.20;45.40;;;;;;5061379;28;20036;-67
2022/05/05 10:07:19;;;;;;;0.10;0.10;;;24.30;44.70;;;;;;5060582;28;20033;-68
2022/05/05 10:09:47;;;;;;;0.10;0.10;;;24.00;46.70;;;;;;5061480;28;20041;-68
2022/05/05 10:12:14;;;;;;;0.10;0.10;;;24.70;46.30;;;;;;5060295;28;20074;-68
2022/05/05 10:14:40;;;;;;;0.00;0.00;;;24.90;45.90;;;;;;5061033;28;20267;-68
2022/05/05 10:17:07;;;;;;;0.32;0.25;;;25.10;43.70;;;;;;5060082;28;20524;-68
2022/05/05 10:19:33;;;;;;;0.15;0.15;;;23.80;45.20;;;;;;5060747;28;20033;-68
2022/05/05 10:22:22;;;;;;;0.03;0.03;;;23.50;43.00;;;;;;5060135;28;20036;-66
2022/05/05 10:24:57;;;;;;;0.43;0.43;;;24.30;44.50;;;;;;5060173;28;20053;-67
2022/05/05 10:27:23;;;;;;;0.10;0.10;;;23.90;44.00;;;;;;5061021;28;20036;-66
2022/05/05 10:29:49;;;;;;;0.10;0.10;;;23.20;43.00;;;;;;5059001;28;20025;-67
2022/05/05 10:32:21;;;;;;;0.10;0.10;;;23.40;44.00;;;;;;5060634;28;20035;-67
2022/05/05 10:34:53;;;;;;;0.40;0.40;;;24.40;47.70;;;;;;5061146;28;20025;-67
2022/05/05 10:37:20;;;;;;;0.10;0.10;;;24.60;42.30;;;;;;5060108;28;20036;-67
2022/05/05 10:40:01;;;;;;;0.10;0.10;;;24.40;42.10;;;;;;5061024;28;20029;-67
2022/05/05 10:42:30;;;;;;;0.10;0.10;;;23.90;42.60;;;;;;5060020;28;20032;-67
2022/05/05 10:45:13;;;;;;;0.20;0.10;;;25.00;42.60;;;;;;5060748;28;20035;-67
2022/05/05 10:48:08;;;;;;;0.10;0.10;;;24.80;42.30;;;;;;5060689;28;20027;-67
2022/05/05 10:50:54;;;;;;;0.00;0.00;;;24.80;42.20;;;;;;5059644;28;20056;-67
2022/05/05 10:53:41;;;;;;;0.00;0.00;;;24.70;42.40;;;;;;5060722;28;20118;-67
2022/05/05 10:56:27;;;;;;;0.20;0.15;;;25.00;42.60;;;;;;5061024;28;20108;-67
2022/05/05 10:58:58;;;;;;;0.17;0.17;;;24.70;43.20;;;;;;5059637;28;20112;-67
2022/05/05 11:01:25;;;;;;;0.10;0.08;;;25.30;43.70;;;;;;5060650;28;20029;-67
2022/05/05 11:04:15;;;;;;;0.00;0.00;;;24.70;42.10;;;;;;5059757;28;20029;-67
2022/05/05 11:06:44;;;;;;;0.10;0.10;;;24.30;42.80;;;;;;5060228;28;20021;-67
2022/05/05 11:09:27;;;;;;;0.00;0.00;;;24.10;42.90;;;;;;5061015;28;20105;-67
2022/05/05 11:12:16;;;;;;;0.00;0.00;;;24.70;42.80;;;;;;5058130;28;20052;-68
2022/05/05 11:23:44;;;;;;;0.10;0.10;;;25.10;42.60;;;;;;5064501;28;20068;-68
2022/05/05 11:26:13;;;;;;;0.10;0.10;;;25.20;43.40;;;;;;5064675;28;20036;-68
2022/05/05 11:28:39;;;;;;;0.30;0.17;;;24.60;43.00;;;;;;5063265;28;20025;-66
2022/05/05 11:31:15;;;;;;;0.10;0.10;;;24.70;43.60;;;;;;5064657;28;20048;-68
2022/05/05 11:33:41;;;;;;;0.10;0.10;;;24.70;45.10;;;;;;5045578;28;20029;-68
2022/05/05 11:36:07;;;;;;;0.70;0.30;;;24.00;42.20;;;;;;5062919;28;20033;-67
2022/05/05 11:38:32;;;;;;;0.50;0.50;;;23.60;44.40;;;;;;5063624;28;20417;-67
2022/05/05 11:41:01;;;;;;;0.00;0.00;;;23.00;43.60;;;;;;5063964;28;20104;-67
2022/05/05 11:46:13;;;;;;;0.00;0.00;;;23.20;43.80;;;;;;5062900;28;20044;-68
2022/05/05 11:48:40;;;;;;;0.10;0.10;;;23.70;44.60;;;;;;5064370;28;20420;-67
2022/05/05 11:51:06;;;;;;;0.10;0.10;;;24.00;46.40;;;;;;5061816;28;20037;-68
2022/05/05 11:53:32;;;;;;;0.10;0.10;;;24.60;44.50;;;;;;5063733;28;20527;-67
2022/05/05 11:55:57;;;;;;;0.08;0.08;;;24.30;42.50;;;;;;5063782;28;20026;-67
2022/05/05 12:04:00;;;;;;;0.08;0.08;;;24.60;43.20;;;;;;5063144;28;20111;-68
2022/05/05 12:06:26;;;;;;;0.00;0.00;;;25.40;43.80;;;;;;5063492;28;20031;-68
2022/05/05 12:08:53;;;;;;;0.00;0.00;;;26.20;44.90;;;;;;5063666;28;20279;-67
2022/05/05 12:11:19;;;;;;;0.08;0.08;;;26.00;42.70;;;;;;5062633;28;20044;-68
2022/05/05 12:13:44;;;;;;;0.00;0.00;;;26.00;42.60;;;;;;5063745;28;20077;-65
2022/05/05 12:16:15;;;;;;;0.55;0.55;;;25.90;42.90;;;;;;5061889;28;20033;-68
2022/05/05 12:18:53;;;;;;;0.00;0.00;;;25.60;41.80;;;;;;5063691;28;20033;-66
2022/05/05 12:21:26;;;;;;;0.00;0.00;;;25.40;42.20;;;;;;5062604;28;20031;-64
2022/05/05 12:23:56;;;;;;;0.17;0.00;;;26.10;44.00;;;;;;5062819;28;20025;-67
2022/05/05 12:26:30;;;;;;;0.10;0.10;;;26.20;41.90;;;;;;5063647;28;20033;-67
2022/05/05 12:28:56;;;;;;;0.00;0.00;;;27.10;42.40;;;;;;5062243;28;20025;-67
2022/05/05 12:31:23;;;;;;;0.00;0.00;;;27.60;41.70;;;;;;5063179;28;20362;-67
2022/05/05 12:33:49;;;;;;;0.00;0.00;;;26.70;40.20;;;;;;5060925;28;20025;-68
2022/05/05 12:36:16;;;;;;;0.00;0.00;;;26.80;40.80;;;;;;5063106;28;20044;-68
2022/05/05 12:38:42;;;;;;;0.00;0.00;;;26.40;39.60;;;;;;5062850;28;20032;-68
2022/05/05 12:41:08;;;;;;;0.05;0.05;;;27.60;41.20;;;;;;5061023;28;20467;-66
2022/05/05 12:43:34;;;;;;;0.13;0.05;;;26.70;38.70;;;;;;5063507;28;20049;-65
2022/05/05 12:46:03;;;;;;;0.10;0.10;;;26.90;40.10;;;;;;5061331;28;20037;-65
2022/05/05 12:48:29;;;;;;;0.00;0.00;;;27.80;40.90;;;;;;5061804;28;20131;-66
2022/05/05 12:50:55;;;;;;;0.00;0.00;;;27.90;39.70;;;;;;5061800;28;20041;-65
2022/05/05 13:01:52;;;;;;;0.00;0.00;;;27.60;38.50;;;;;;5062851;28;20099;-66
2022/05/05 13:04:19;;;;;;;0.20;0.10;;;27.30;39.30;;;;;;5062078;28;20021;-66
2022/05/05 13:06:50;;;;;;;0.80;0.40;;;27.40;38.60;;;;;;5061860;28;20047;-66
2022/05/05 13:09:17;;;;;;;0.20;0.10;;;26.10;39.50;;;;;;5062847;28;20047;-66
2022/05/05 13:11:46;;;;;;;0.20;0.13;;;25.80;39.40;;;;;;5061111;28;20097;-66
2022/05/05 13:14:12;;;;;;;0.20;0.15;;;25.40;39.50;;;;;;5062448;28;20069;-66
2022/05/05 13:16:38;;;;;;;0.10;0.10;;;24.90;39.70;;;;;;5061134;28;20036;-68
2022/05/05 13:19:05;;;;;;;0.00;0.00;;;25.10;41.60;;;;;;5062462;28;20025;-67
2022/05/05 13:21:36;;;;;;;0.03;0.03;;;25.00;42.90;;;;;;5063182;28;20035;-66
2022/05/05 13:24:02;;;;;;;;;;;24.60;43.30;;;;;;5064256;28;20029;-67
2022/05/05 13:26:27;;;;;;;0.03;0.03;;;23.90;43.20;;;;;;5064896;28;19915;-65
2022/05/05 13:28:54;;;;;;;0.00;0.00;;;24.20;44.20;;;;;;5062031;28;20025;-67
2022/05/05 13:31:19;;;;;;;0.00;0.00;;;23.80;43.50;;;;;;5062518;28;20039;-67
2022/05/05 13:33:45;;;;;;;0.65;0.25;;;23.60;44.00;;;;;;5061065;28;20048;-66
2022/05/05 13:36:11;;;;;;;0.00;0.00;;;24.70;43.90;;;;;;5060757;28;20036;-67
2022/05/05 13:38:38;;;;;;;0.10;0.10;;;25.00;44.00;;;;;;5062617;28;20672;-67
2022/05/05 13:41:03;;;;;;;0.05;0.05;;;24.90;42.10;;;;;;5062471;28;20029;-66
2022/05/05 13:43:29;;;;;;;0.00;0.00;;;25.20;42.50;;;;;;5060788;28;20044;-66
2022/05/05 13:45:55;;;;;;;0.00;0.00;;;25.50;43.40;;;;;;5061506;28;20094;-66
2022/05/05 13:48:21;;;;;;;0.00;0.00;;;25.90;42.20;;;;;;5062094;28;20033;-66
2022/05/05 13:50:47;;;;;;;0.00;0.00;;;25.70;41.60;;;;;;5059418;28;20041;-67